Aviation Digital Data Service (ADDS)

Output produced by METARs form (2125 UTC 21 May 2022)
found at http://www.aviationweather.gov/metar/data/
 
LBBG 212100Z AUTO VRB02KT 9999 NCD 16/13 Q1011 NOSIG
TAF LBBG 211700Z 2118/2218 VRB04KT CAVOK 
     BECMG 2123/2201 26010KT 9999 BKN045 
     PROB30 
     TEMPO 2203/2206 5000 SHRA SCT025 FEW030TCU BKN040 
     BECMG 2206/2208 32010KT 
     PROB40 
     TEMPO 2208/2214 4000 TSRA SCT025CB BKN035 
     BECMG 2214/2216 12010KT SCT040
       
LBGO 212100Z AUTO VRB02KT 9999 FEW130/// 14/13 Q1011
TAF LBGO 211700Z 2118/2218 VRB04KT CAVOK 
     BECMG 2122/2124 SCT040 BKN060 
     PROB40 
     TEMPO 2204/2208 5000 SHRA SCT025CB BKN040 
     BECMG 2204/2206 27010KT
       
LBPD 212100Z AUTO 00000KT 9999 NCD 17/07 Q1012
TAF LBPD 211700Z 2118/2218 VRB04KT CAVOK 
     BECMG 2204/2206 28014KT SCT040 BKN060 
     PROB40 
     TEMPO 2208/2216 5000 SHRA FEW025CB BKN040
       
LBSF 212100Z AUTO 28005KT 9999 NSC 20/11 Q1015 NOSIG
TAF LBSF 211700Z 2118/2218 VRB04KT CAVOK 
     BECMG 2206/2208 30014KT SCT040 BKN060 
     PROB30 
     TEMPO 2210/2216 SHRA FEW033CB BKN050
       
LBWN 212100Z AUTO 00000KT 9999 NCD 15/12 Q1010 NOSIG
TAF LBWN 211700Z 2118/2218 12008KT CAVOK 
     BECMG 2118/2120 VRB04KT 
     BECMG 2200/2202 32010KT BKN045 
     PROB30 
     TEMPO 2203/2206 5000 SHRA SCT020 FEW033CB BKN040 
     PROB40 
     TEMPO 2209/2215 4000 TSRA SCT025CB BKN040 
     BECMG 2213/2215 12010KT SCT045